createdAt,value
2019-04-26T00:00:35.374Z,25.12
2019-04-26T00:03:12.129Z,23.87
2019-04-26T00:05:46.453Z,19.15
2019-04-26T00:08:22.155Z,24.23
2019-04-26T00:10:58.179Z,19.65
2019-04-26T00:13:34.034Z,24.35
2019-04-26T00:16:21.094Z,19.70
2019-04-26T00:18:55.376Z,22.02
2019-04-26T00:21:30.294Z,26.77
2019-04-26T00:24:05.126Z,22.87
2019-04-26T00:26:39.725Z,22.07
2019-04-26T00:29:23.592Z,24.87
2019-04-26T00:31:57.879Z,23.83
2019-04-26T00:34:32.203Z,22.52
2019-04-26T00:37:14.047Z,24.25
2019-04-26T00:39:48.295Z,25.37
2019-04-26T00:42:23.194Z,26.00
2019-04-26T00:45:09.490Z,22.45
2019-04-26T00:47:44.624Z,26.93
2019-04-26T00:50:23.310Z,22.17
2019-04-26T00:52:58.621Z,23.40
2019-04-26T00:55:34.920Z,21.68
2019-04-26T00:58:18.674Z,24.47
2019-04-26T01:00:53.991Z,25.08
2019-04-26T01:03:28.278Z,28.32
2019-04-26T01:06:04.163Z,27.30
2019-04-26T01:08:38.795Z,23.73
2019-04-26T01:11:12.960Z,25.95
2019-04-26T01:13:47.161Z,25.72
2019-04-26T01:16:27.577Z,24.77
2019-04-26T01:19:01.834Z,23.83
2019-04-26T01:21:39.153Z,23.50
2019-04-26T01:24:34.432Z,24.92
2019-04-26T01:27:10.447Z,27.67
2019-04-26T01:29:50.844Z,26.80
2019-04-26T01:32:28.255Z,27.65
2019-04-26T01:35:06.781Z,24.32
2019-04-26T01:37:43.702Z,24.55
2019-04-26T01:40:20.592Z,27.02
2019-04-26T01:42:56.791Z,24.77
2019-04-26T01:45:40.407Z,27.02
2019-04-26T01:48:46.063Z,25.08
2019-04-26T01:51:38.743Z,24.23
2019-04-26T01:54:16.051Z,24.75
2019-04-26T01:57:02.383Z,25.25
2019-04-26T01:59:40.464Z,26.02
2019-04-26T02:02:34.735Z,26.73
2019-04-26T02:05:13.937Z,24.92
2019-04-26T02:07:57.920Z,24.82
2019-04-26T02:10:32.746Z,26.82
2019-04-26T02:13:07.170Z,28.50
2019-04-26T02:15:48.933Z,27.93
2019-04-26T02:18:24.073Z,24.77
2019-04-26T02:21:09.283Z,24.92
2019-04-26T02:24:01.643Z,26.93
2019-04-26T02:26:46.331Z,28.60
2019-04-26T02:29:26.839Z,23.90
2019-04-26T02:32:05.158Z,27.02
2019-04-26T02:34:51.567Z,30.40
2019-04-26T02:37:27.010Z,25.40
2019-04-26T02:40:02.856Z,26.20
2019-04-26T02:42:40.168Z,27.52
2019-04-26T02:45:38.222Z,24.85
2019-04-26T02:51:17.905Z,25.23
2019-04-26T02:54:18.539Z,27.13
2019-04-26T02:56:56.119Z,25.17
2019-04-26T02:59:38.394Z,26.75
2019-04-26T03:02:15.608Z,24.92
2019-04-26T03:04:56.226Z,29.15
2019-04-26T03:07:39.828Z,29.30
2019-04-26T03:10:14.440Z,25.85
2019-04-26T03:12:54.901Z,24.63
2019-04-26T03:15:37.093Z,28.80
2019-04-26T03:18:35.101Z,25.95
2019-04-26T03:21:23.939Z,26.40
2019-04-26T03:24:28.798Z,26.25
2019-04-26T03:27:09.207Z,25.10
2019-04-26T03:30:22.821Z,26.02
2019-04-26T03:33:06.402Z,25.48
2019-04-26T03:36:19.882Z,28.85
2019-04-26T03:39:10.711Z,25.92
2019-04-26T03:42:07.382Z,27.62
2019-04-26T03:45:10.380Z,29.63
2019-04-26T03:47:50.246Z,27.00
2019-04-26T03:50:44.979Z,26.55
2019-04-26T03:53:25.012Z,27.70
2019-04-26T03:56:05.440Z,29.05
2019-04-26T03:59:11.059Z,27.98
2019-04-26T04:01:50.008Z,29.48
2019-04-26T04:04:37.069Z,25.43
2019-04-26T04:07:14.422Z,27.32
2019-04-26T04:10:27.836Z,26.25
2019-04-26T04:13:05.214Z,24.05
2019-04-26T04:15:46.771Z,25.27
2019-04-26T04:18:35.342Z,28.12
2019-04-26T04:21:42.580Z,24.23
2019-04-26T04:24:32.254Z,23.75
2019-04-26T04:27:21.714Z,23.65
2019-04-26T04:30:04.055Z,22.07
2019-04-26T04:32:47.717Z,26.68
2019-04-26T04:35:24.883Z,22.80
2019-04-26T04:38:15.159Z,20.15
2019-04-26T04:41:02.865Z,22.25
2019-04-26T04:43:50.777Z,23.65
2019-04-26T04:46:47.430Z,20.80
2019-04-26T04:49:27.332Z,22.00
2019-04-26T04:52:21.483Z,24.57
2019-04-26T04:55:07.204Z,18.50
2019-04-26T04:57:58.894Z,21.17
2019-04-26T05:00:47.176Z,22.48
2019-04-26T05:03:45.558Z,20.97
2019-04-26T05:06:48.994Z,23.32
2019-04-26T05:09:26.262Z,23.20
2019-04-26T05:12:26.211Z,20.77
2019-04-26T05:15:18.119Z,14.68
2019-04-26T05:17:57.916Z,22.87
2019-04-26T05:20:51.411Z,16.57
2019-04-26T05:24:03.491Z,18.23
2019-04-26T05:27:00.487Z,19.15
2019-04-26T05:29:58.540Z,18.27
2019-04-26T05:32:38.685Z,24.35
2019-04-26T05:35:42.714Z,17.05
2019-04-26T05:38:40.854Z,16.75
2019-04-26T05:41:53.531Z,25.25
2019-04-26T05:45:16.068Z,17.42
2019-04-26T05:48:18.923Z,20.48
2019-04-26T05:51:19.034Z,29.20
2019-04-26T05:54:09.787Z,25.23
2019-04-26T05:57:03.655Z,19.30
2019-04-26T05:59:53.349Z,19.95
2019-04-26T06:02:48.587Z,22.52
2019-04-26T06:05:38.862Z,19.90
2019-04-26T06:08:57.405Z,23.20
2019-04-26T06:11:42.049Z,23.77
2019-04-26T06:14:35.909Z,26.57
2019-04-26T06:17:45.644Z,23.47
2019-04-26T06:20:26.391Z,23.55
2019-04-26T06:23:09.364Z,24.40
2019-04-26T06:26:01.424Z,23.38
2019-04-26T06:29:05.691Z,23.60
2019-04-26T06:31:51.787Z,24.12
2019-04-26T06:34:28.998Z,20.08
2019-04-26T06:37:10.492Z,26.12
2019-04-26T06:39:59.968Z,26.82
2019-04-26T06:43:07.258Z,26.57
2019-04-26T06:46:04.694Z,24.85
2019-04-26T06:48:57.076Z,25.20
2019-04-26T06:51:49.108Z,24.32
2019-04-26T06:54:48.643Z,22.75
2019-04-26T06:57:52.470Z,26.57
2019-04-26T07:00:31.378Z,24.07
2019-04-26T07:03:11.270Z,22.15
2019-04-26T07:05:48.398Z,24.50
2019-04-26T07:08:41.037Z,23.85
2019-04-26T07:11:42.069Z,24.92
2019-04-26T07:14:30.865Z,26.02
2019-04-26T07:17:10.230Z,25.15
2019-04-26T07:20:08.033Z,23.38
2019-04-26T07:23:10.890Z,25.62
2019-04-26T07:26:01.709Z,25.32
2019-04-26T07:29:01.376Z,22.70
2019-04-26T07:31:54.022Z,24.32
2019-04-26T07:34:50.188Z,25.75
2019-04-26T07:37:29.909Z,24.52
2019-04-26T07:40:26.305Z,23.98
2019-04-26T07:43:26.026Z,25.37
2019-04-26T07:46:23.981Z,23.52
2019-04-26T07:49:20.318Z,23.30
2019-04-26T07:51:57.704Z,20.48
2019-04-26T07:55:10.774Z,24.18
2019-04-26T07:58:21.173Z,21.75
2019-04-26T08:01:12.038Z,24.35
2019-04-26T08:03:50.869Z,23.57
2019-04-26T08:06:39.641Z,23.52
2019-04-26T08:09:26.562Z,26.82
2019-04-26T08:11:53.448Z,26.55
2019-04-26T08:14:50.087Z,27.17
2019-04-26T08:17:28.804Z,24.05
2019-04-26T08:20:28.156Z,27.17
2019-04-26T08:23:08.996Z,20.72
2019-04-26T08:25:41.990Z,21.42
2019-04-26T08:28:18.986Z,25.27
2019-04-26T08:30:55.857Z,21.77
2019-04-26T08:33:36.327Z,20.43
2019-04-26T08:36:12.787Z,17.65
2019-04-26T08:38:52.610Z,22.45
2019-04-26T08:41:25.650Z,19.15
2019-04-26T08:44:17.358Z,20.40
2019-04-26T08:47:14.235Z,20.60
2019-04-26T08:49:50.428Z,24.43
2019-04-26T08:52:28.127Z,20.32
2019-04-26T08:55:05.977Z,22.75
2019-04-26T08:57:42.250Z,18.90
2019-04-26T09:00:23.225Z,22.73
2019-04-26T09:03:11.013Z,21.80
2019-04-26T09:05:41.550Z,20.37
2019-04-26T09:08:18.254Z,16.80
2019-04-26T09:10:55.187Z,22.25
2019-04-26T09:13:34.995Z,18.73
2019-04-26T09:16:11.873Z,18.32
2019-04-26T09:18:52.344Z,18.25
2019-04-26T09:21:23.790Z,21.35
2019-04-26T09:24:15.630Z,19.17
2019-04-26T09:26:51.429Z,18.25
2019-04-26T09:29:31.780Z,15.95
2019-04-26T09:32:10.601Z,18.73
2019-04-26T09:34:45.134Z,17.87
2019-04-26T09:37:19.470Z,19.23
2019-04-26T09:39:53.416Z,18.70
2019-04-26T09:42:28.921Z,18.50
2019-04-26T09:45:07.446Z,20.90
2019-04-26T09:47:45.988Z,16.02
2019-04-26T09:50:25.960Z,15.05
2019-04-26T09:53:00.161Z,15.08
2019-04-26T09:55:35.552Z,14.95
2019-04-26T09:58:10.169Z,17.15
2019-04-26T10:00:48.641Z,13.98
2019-04-26T10:03:21.253Z,15.28
2019-04-26T10:05:55.889Z,17.50
2019-04-26T10:08:31.129Z,17.73
2019-04-26T10:11:09.568Z,18.25
2019-04-26T10:13:53.467Z,17.95
2019-04-26T10:16:37.644Z,14.63
2019-04-26T10:19:11.693Z,15.05
2019-04-26T10:21:45.964Z,18.48
2019-04-26T10:24:20.173Z,17.45
2019-04-26T10:26:55.531Z,19.65
2019-04-26T10:29:29.740Z,16.82
2019-04-26T10:32:03.971Z,15.38
2019-04-26T10:34:38.163Z,14.18
2019-04-26T10:37:12.396Z,13.28
2019-04-26T10:39:46.648Z,17.52
2019-04-26T10:42:20.886Z,16.23
2019-04-26T10:44:55.009Z,21.00
2019-04-26T10:47:29.173Z,18.85
2019-04-26T10:50:03.707Z,16.75
2019-04-26T10:52:49.692Z,16.45
2019-04-26T10:55:23.080Z,21.60
2019-04-26T10:58:10.512Z,23.47
2019-04-26T11:00:52.778Z,22.47
2019-04-26T11:03:27.894Z,24.70
2019-04-26T11:06:01.857Z,30.03
2019-04-26T11:08:36.093Z,29.07
2019-04-26T11:11:10.048Z,26.60
2019-04-26T11:13:44.780Z,28.17
2019-04-26T11:16:19.084Z,31.62
2019-04-26T11:18:53.253Z,32.45
2019-04-26T11:21:28.398Z,29.65
2019-04-26T11:24:02.600Z,29.02
2019-04-26T11:26:38.231Z,27.82
2019-04-26T11:29:12.492Z,34.63
2019-04-26T11:31:46.658Z,30.32
2019-04-26T11:34:23.391Z,30.90
2019-04-26T11:36:56.681Z,26.93
2019-04-26T11:39:30.997Z,28.20
2019-04-26T11:42:07.906Z,29.37
2019-04-26T11:44:41.152Z,28.20
2019-04-26T11:47:15.340Z,29.35
2019-04-26T11:49:50.114Z,31.77
2019-04-26T11:52:24.485Z,30.55
2019-04-26T11:54:58.640Z,25.60
2019-04-26T11:57:32.848Z,28.73
2019-04-26T12:00:09.452Z,32.85
2019-04-26T12:02:46.259Z,34.18
2019-04-26T12:05:25.626Z,28.87
2019-04-26T12:08:02.241Z,28.65
2019-04-26T12:10:40.572Z,30.30
2019-04-26T12:13:14.592Z,30.92
2019-04-26T12:15:49.526Z,33.98
2019-04-26T12:18:23.782Z,34.30
2019-04-26T12:21:01.093Z,29.75
2019-04-26T12:23:33.791Z,29.77
2019-04-26T12:26:07.991Z,29.40
2019-04-26T12:28:42.125Z,30.15
2019-04-26T12:31:16.301Z,29.92
2019-04-26T12:33:50.573Z,36.00
2019-04-26T12:36:24.738Z,31.25
2019-04-26T12:39:02.160Z,31.07
2019-04-26T12:41:40.166Z,32.10
2019-04-26T12:44:11.915Z,34.80
2019-04-26T12:46:50.499Z,37.65
2019-04-26T12:49:24.249Z,29.82
2019-04-26T12:51:59.816Z,29.95
2019-04-26T12:54:33.973Z,33.30
2019-04-26T12:57:16.403Z,34.05
2019-04-26T12:59:50.653Z,40.20
2019-04-26T13:02:26.069Z,34.92
2019-04-26T13:05:00.156Z,36.98
2019-04-26T13:07:34.616Z,36.03
2019-04-26T13:10:13.595Z,31.55
2019-04-26T13:12:58.218Z,33.45
2019-04-26T13:15:57.966Z,35.78
2019-04-26T13:18:33.580Z,34.73
2019-04-26T13:21:07.804Z,34.53
2019-04-26T13:23:43.456Z,32.33
2019-04-26T13:26:17.636Z,32.30
2019-04-26T13:28:52.569Z,38.30
2019-04-26T13:31:31.675Z,36.15
2019-04-26T13:34:04.647Z,37.23
2019-04-26T13:36:38.881Z,36.00
2019-04-26T13:39:17.107Z,34.60
2019-04-26T13:42:01.469Z,36.33
2019-04-26T13:44:42.614Z,36.17
2019-04-26T13:47:36.357Z,34.27
2019-04-26T13:50:16.345Z,36.35
2019-04-26T13:52:50.480Z,33.00
2019-04-26T13:55:25.479Z,36.60
2019-04-26T13:58:01.516Z,37.40
2019-04-26T14:00:35.749Z,34.45
2019-04-26T14:03:09.841Z,36.23
2019-04-26T14:05:44.017Z,39.05
2019-04-26T14:08:18.338Z,32.53
2019-04-26T14:10:52.592Z,41.37
2019-04-26T14:13:26.758Z,38.20
2019-04-26T14:16:01.671Z,40.10
2019-04-26T14:18:39.098Z,34.75
2019-04-26T14:21:11.817Z,35.63
2019-04-26T14:24:03.630Z,40.83
2019-04-26T14:26:41.228Z,35.70
2019-04-26T14:29:15.263Z,37.70
2019-04-26T14:31:51.423Z,33.08
2019-04-26T14:34:25.352Z,38.00
2019-04-26T14:37:06.362Z,39.88
2019-04-26T14:39:49.587Z,31.85
2019-04-26T14:42:11.169Z,35.00
2019-04-26T14:44:49.522Z,32.98
2019-04-26T14:47:21.287Z,35.65
2019-04-26T14:49:57.662Z,35.68
2019-04-26T14:52:31.581Z,33.53
2019-04-26T14:55:06.525Z,34.48
2019-04-26T14:57:40.619Z,33.08
2019-04-26T15:00:16.807Z,35.78
2019-04-26T15:03:07.820Z,38.17
2019-04-26T15:05:49.554Z,40.92
2019-04-26T15:08:23.716Z,37.38
2019-04-26T15:11:01.263Z,35.73
2019-04-26T15:13:36.297Z,31.17
2019-04-26T15:16:11.767Z,28.02
2019-04-26T15:18:45.505Z,28.65
2019-04-26T15:21:19.669Z,21.52
2019-04-26T15:23:55.432Z,20.37
2019-04-26T15:26:30.207Z,19.87
2019-04-26T15:29:04.615Z,21.50
2019-04-26T15:31:38.824Z,15.95
2019-04-26T15:34:13.200Z,17.42
2019-04-26T15:36:47.920Z,18.15
2019-04-26T15:39:30.613Z,17.17
2019-04-26T15:42:15.365Z,21.33
2019-04-26T15:44:57.505Z,16.52
2019-04-26T15:47:34.327Z,19.25
2019-04-26T15:50:17.344Z,16.80
2019-04-26T15:52:52.549Z,15.45
2019-04-26T15:55:26.776Z,16.02
2019-04-26T15:58:02.713Z,15.88
2019-04-26T16:00:37.088Z,11.73
2019-04-26T16:03:22.733Z,13.68
2019-04-26T16:05:59.189Z,14.23
2019-04-26T16:08:35.106Z,13.08
2019-04-26T16:11:11.340Z,10.13
2019-04-26T16:13:45.094Z,12.30
2019-04-26T16:16:20.686Z,12.37
2019-04-26T16:18:57.326Z,8.63
2019-04-26T16:21:33.121Z,11.22
2019-04-26T16:24:07.284Z,9.45
2019-04-26T16:26:44.588Z,13.08
2019-04-26T16:29:24.477Z,9.90
2019-04-26T16:32:02.767Z,11.63
2019-04-26T16:34:47.505Z,12.95
2019-04-26T16:37:21.692Z,11.65
2019-04-26T16:39:52.682Z,11.43
2019-04-26T16:42:26.835Z,11.10
2019-04-26T16:47:45.012Z,13.50
2019-04-26T16:50:14.993Z,8.90
2019-04-26T16:52:49.017Z,12.47
2019-04-26T16:55:24.696Z,10.90
2019-04-26T16:57:59.253Z,8.38
2019-04-26T17:00:50.146Z,9.90
2019-04-26T17:03:10.159Z,10.78
2019-04-26T17:05:48.114Z,10.35
2019-04-26T17:08:20.085Z,13.83
2019-04-26T17:09:50.676Z,8.83
2019-04-26T17:10:56.679Z,11.97
2019-04-26T17:13:30.925Z,9.43
2019-04-26T17:16:05.916Z,9.43
2019-04-26T17:18:40.098Z,10.95
2019-04-26T17:21:17.513Z,9.05
2019-04-26T17:24:08.478Z,10.32
2019-04-26T17:26:42.793Z,9.80
2019-04-26T17:29:16.996Z,9.85
2019-04-26T17:31:52.225Z,10.15
2019-04-26T17:34:28.906Z,9.48
2019-04-26T17:37:07.564Z,11.12
2019-04-26T17:39:38.486Z,11.03
2019-04-26T17:42:12.696Z,9.15
2019-04-26T17:44:46.867Z,12.23
2019-04-26T17:47:20.964Z,13.50
2019-04-26T17:49:57.540Z,17.05
2019-04-26T17:52:36.005Z,13.45
2019-04-26T17:55:07.709Z,14.65
2019-04-26T17:57:48.596Z,16.55
2019-04-26T18:00:26.697Z,12.63
2019-04-26T18:02:56.592Z,14.63
2019-04-26T18:05:45.004Z,14.18
2019-04-26T18:08:31.329Z,15.30
2019-04-26T18:10:42.951Z,14.33
2019-04-26T18:13:17.776Z,13.30
2019-04-26T18:15:52.875Z,12.80
2019-04-26T18:18:53.559Z,14.07
2019-04-26T18:21:40.423Z,15.35
2019-04-26T18:24:14.573Z,14.28
2019-04-26T18:26:52.354Z,11.53
2019-04-26T18:29:29.366Z,13.18
2019-04-26T18:32:03.636Z,12.65
2019-04-26T18:34:40.618Z,14.63
2019-04-26T18:37:13.776Z,11.63
2019-04-26T18:39:47.993Z,10.95
2019-04-26T18:42:22.376Z,11.63
2019-04-26T18:44:56.514Z,11.10
2019-04-26T18:47:32.366Z,9.28
2019-04-26T18:50:07.456Z,8.33
2019-04-26T18:52:44.300Z,9.10
2019-04-26T18:55:29.231Z,7.15
2019-04-26T18:58:05.606Z,8.15
2019-04-26T19:00:43.660Z,8.65
2019-04-26T19:03:17.503Z,7.03
2019-04-26T19:05:51.905Z,6.30
2019-04-26T19:08:27.162Z,6.28
2019-04-26T19:11:03.525Z,6.67
2019-04-26T19:13:39.291Z,8.58
2019-04-26T19:16:19.296Z,7.75
2019-04-26T19:18:57.956Z,6.78
2019-04-26T19:21:39.100Z,9.15
2019-04-26T19:24:17.275Z,7.03
2019-04-26T19:26:49.835Z,9.88
2019-04-26T19:29:27.412Z,7.97
2019-04-26T19:32:01.530Z,9.93
2019-04-26T19:34:33.033Z,10.53
2019-04-26T19:37:07.835Z,10.82
2019-04-26T19:39:42.713Z,7.53
2019-04-26T19:42:16.943Z,7.62
2019-04-26T19:45:10.859Z,8.75
2019-04-26T19:47:28.620Z,12.18
2019-04-26T19:50:13.568Z,10.38
2019-04-26T19:52:49.437Z,11.38
2019-04-26T19:55:33.928Z,9.08
2019-04-26T19:58:16.107Z,10.10
2019-04-26T20:00:46.957Z,9.53
2019-04-26T20:03:22.228Z,9.73
2019-04-26T20:05:56.435Z,12.88
2019-04-26T20:08:34.638Z,10.58
2019-04-26T20:11:06.587Z,15.08
2019-04-26T20:13:42.391Z,12.07
2019-04-26T20:16:16.575Z,13.70
2019-04-26T20:18:52.291Z,16.15
2019-04-26T20:21:26.566Z,16.45
2019-04-26T20:24:01.318Z,15.38
2019-04-26T20:26:37.402Z,15.13
2019-04-26T20:29:11.792Z,15.68
2019-04-26T20:31:56.715Z,14.98
2019-04-26T20:34:32.136Z,15.35
2019-04-26T20:37:06.373Z,16.10
2019-04-26T20:39:41.993Z,17.57
2019-04-26T20:42:16.423Z,17.02
2019-04-26T20:44:51.913Z,18.00
2019-04-26T20:47:26.400Z,15.55
2019-04-26T20:50:01.233Z,16.77
2019-04-26T20:52:36.438Z,16.52
2019-04-26T20:55:11.698Z,15.63
2019-04-26T20:57:46.622Z,16.82
2019-04-26T21:00:22.540Z,14.60
2019-04-26T21:03:01.339Z,15.10
2019-04-26T21:05:45.035Z,15.58
2019-04-26T21:08:08.404Z,14.13
2019-04-26T21:10:42.667Z,14.18
2019-04-26T21:13:16.754Z,13.30
2019-04-26T21:15:57.792Z,12.55
2019-04-26T21:18:26.678Z,16.20
2019-04-26T21:21:01.507Z,12.95
2019-04-26T21:23:40.001Z,11.88
2019-04-26T21:26:19.276Z,15.25
2019-04-26T21:29:21.755Z,14.33
2019-04-26T21:32:05.380Z,14.70
2019-04-26T21:34:44.909Z,12.88
2019-04-26T21:37:35.948Z,12.25
2019-04-26T21:40:16.957Z,13.55
2019-04-26T21:42:55.321Z,11.50
2019-04-26T21:45:30.744Z,11.18
2019-04-26T21:48:02.572Z,9.33
2019-04-26T21:50:39.068Z,11.25
2019-04-26T21:53:13.364Z,12.13
2019-04-26T21:55:47.521Z,12.98
2019-04-26T21:58:21.622Z,15.10
2019-04-26T22:01:04.388Z,10.93
2019-04-26T22:03:38.751Z,11.93
2019-04-26T22:06:14.237Z,12.28
2019-04-26T22:08:50.271Z,14.90
2019-04-26T22:11:24.432Z,14.25
2019-04-26T22:14:00.270Z,15.75
2019-04-26T22:16:45.089Z,14.63
2019-04-26T22:19:23.263Z,16.15
2019-04-26T22:22:10.567Z,14.93
2019-04-26T22:24:46.406Z,16.55
2019-04-26T22:27:21.792Z,15.90
2019-04-26T22:29:56.327Z,14.07
2019-04-26T22:32:30.502Z,17.10
2019-04-26T22:35:04.886Z,19.12
2019-04-26T22:37:41.370Z,15.03
2019-04-26T22:40:19.556Z,16.27
2019-04-26T22:42:54.318Z,16.60
2019-04-26T22:45:39.582Z,15.55
2019-04-26T22:48:22.856Z,19.35
2019-04-26T22:50:58.318Z,17.02
2019-04-26T22:53:27.687Z,17.10
2019-04-26T22:56:03.349Z,17.10
2019-04-26T22:58:37.235Z,17.00
2019-04-26T23:01:10.811Z,19.13
2019-04-26T23:03:46.589Z,16.57
2019-04-26T23:06:20.850Z,19.00
2019-04-26T23:08:55.043Z,18.05
2019-04-26T23:11:29.347Z,21.68
2019-04-26T23:14:11.603Z,22.10
2019-04-26T23:17:01.755Z,22.05
2019-04-26T23:19:34.717Z,23.55
2019-04-26T23:22:09.419Z,25.30
2019-04-26T23:24:44.872Z,26.57
2019-04-26T23:27:20.540Z,24.67
2019-04-26T23:29:57.355Z,24.77
2019-04-26T23:32:31.186Z,26.48
2019-04-26T23:35:07.762Z,27.97
2019-04-26T23:37:41.622Z,29.55
2019-04-26T23:40:15.806Z,27.00
2019-04-26T23:42:51.618Z,30.62
2019-04-26T23:45:25.937Z,32.77
2019-04-26T23:47:59.554Z,35.83
2019-04-26T23:50:34.142Z,33.65
2019-04-26T23:53:08.301Z,38.90
2019-04-26T23:55:45.111Z,38.40
2019-04-26T23:58:18.302Z,41.23
